KECS

Mondell Field Airport

Newcastle, Wyoming, USA
METAR KECS 230315Z AUTO 03005G08KT 10SM RA BKN015 OVC022 13/10 A3003 RMK AO2 LTG DSNT SE AND SW
Observed Flight Rules
May-23 @ 03:15 UTC (7 minutes ago) Marginal Visual Flight Rules
Wind Visibility Clouds Conditions
30° at 5 knots
 Gusting to 8 knots
10 miles
  • Broken at 1,500' AGL
  • Overcast at 2,200' AGL
  • Rain
Temperatures Readings
Current 13°C / 55°F
Dewpoint 10°C / 50°F
Humidity 82%
Altimeter 30.03" Hg
Pressure 1017 hPa
Elevation 1273
METAR KECS 230315Z AUTO 03005G08KT 10SM RA BKN015 OVC022 13/10 A3003 RMK AO2 LTG DSNT SE AND SW
Observed Flight Rules
May-23 @ 03:15 UTC
(7 minutes ago)
MVFR
Wind Visibility
30° at 5 knots
 Gusting to 8 knots
10 miles
Clouds
  • Broken at 1,500' AGL
  • Overcast at 2,200' AGL
Conditions
  • Rain
Temperature Dewpoint
13°C / 55°F 10°C / 50°F
Humidity Altimeter Pressure
82% 30.03" Hg 1017 hPa